»·PEaware :: N772WW KVUO-KBFI

N772WW :: KVUO-KBFI

FLIGHT INFORMATION

Flight Status: Arrived
Operator: Privately registered:
United States
More flights under this callsign
Pilot: Thomas S. (17015)
Aircraft: SOCATA TBM-900
(TBM9)
More flights by this aircraft type
Origin: KVUO Pearson
United States
Destination: KBFI Boeing Field/King Co Intl
United States
More flights between these airports :: More routes between these airports
Route: BTG OLM2
File this flight plan on PilotEdge
Remarks: RMK / SIMBRIEF
Altitude:
(Current/Filed)
28,000ft
Speed:
(Current/Filed)
322kts
Departed: 23-Oct-20 07:58 AM
Arrived: 23-Oct-20 08:40 AM
Distance/Time
Traveled:
116nm/0:41
Distance/Time
To Go:
Arrived

Flight Plot

Page will automatically refresh every two minutes.

Flight plan parsing failed; only flown route is shown


Map Options




Map Legend


Flown Route
Filed Route
Departure Airport
Arrival Airport
Navaid (VOR, NDB)
Fix

Horizontal Profiles

Position Reports

Time Latitude Longitude Heading Altitude Ground
Speed
23-Oct-20 07:41 45.621510 -122.655090 182 26ft 0kts
23-Oct-20 07:42 45.621510 -122.655090 182 26ft 0kts
23-Oct-20 07:44 45.621509 -122.655090 182 26ft 0kts
23-Oct-20 07:45 45.621509 -122.655090 182 26ft 0kts
23-Oct-20 07:46 45.621509 -122.655090 182 26ft 0kts
23-Oct-20 07:47 45.621509 -122.655090 182 26ft 0kts
23-Oct-20 07:48 45.621509 -122.655090 182 26ft 0kts
23-Oct-20 07:49 45.621509 -122.655090 182 26ft 0kts
23-Oct-20 07:50 45.621509 -122.655090 182 26ft 0kts
23-Oct-20 07:51 45.621509 -122.655090 182 26ft 0kts
23-Oct-20 07:52 45.621509 -122.655090 182 26ft 0kts
23-Oct-20 07:53 45.621432 -122.655092 174 26ft 0kts
23-Oct-20 07:54 45.621432 -122.655092 174 26ft 0kts
23-Oct-20 07:55 45.621299 -122.654458 95 25ft 7kts
23-Oct-20 07:56 45.620672 -122.651552 180 25ft 8kts
23-Oct-20 07:57 45.620627 -122.658012 277 27ft 107kts
23-Oct-20 07:58 45.629260 -122.705962 331 2024ft 138kts
23-Oct-20 07:59 45.660664 -122.683770 39 4375ft 141kts
23-Oct-20 08:00 45.693930 -122.647886 36 6687ft 160kts
23-Oct-20 08:01 45.729926 -122.610015 29 9122ft 164kts
23-Oct-20 08:02 45.768268 -122.597028 338 11743ft 138kts
23-Oct-20 08:03 45.804733 -122.605660 339 14354ft 133kts
23-Oct-20 08:04 45.848943 -122.616790 341 15527ft 186kts
23-Oct-20 08:05 45.898251 -122.628888 340 17819ft 169kts
23-Oct-20 08:06 45.951454 -122.642286 342 18231ft 222kts
23-Oct-20 08:07 46.015949 -122.658278 342 18209ft 243kts
23-Oct-20 08:08 46.083738 -122.675322 342 18210ft 250kts
23-Oct-20 08:09 46.151286 -122.692277 342 18196ft 254kts
23-Oct-20 08:10 46.221019 -122.709856 342 18177ft 254kts
23-Oct-20 08:11 46.290792 -122.727468 342 18168ft 253kts
23-Oct-20 08:12 46.360502 -122.745111 342 18170ft 253kts
23-Oct-20 08:13 46.429741 -122.762700 342 18168ft 252kts
23-Oct-20 08:14 46.499183 -122.780362 342 18170ft 253kts
23-Oct-20 08:15 46.568455 -122.798035 342 18163ft 251kts
23-Oct-20 08:16 46.637610 -122.815718 342 18170ft 251kts
23-Oct-20 08:17 46.706718 -122.833447 341 18161ft 251kts
23-Oct-20 08:19 46.777526 -122.851685 342 17274ft 270kts
23-Oct-20 08:20 46.853146 -122.871164 342 15768ft 278kts
23-Oct-20 08:21 46.928462 -122.890609 341 15009ft 262kts
23-Oct-20 08:22 46.996820 -122.870803 32 15028ft 289kts
23-Oct-20 08:23 47.068315 -122.814670 16 13579ft 300kts
23-Oct-20 08:24 47.142838 -122.762816 16 11914ft 303kts
23-Oct-20 08:25 47.220449 -122.712907 16 10189ft 305kts
23-Oct-20 08:26 47.303790 -122.688182 5 8376ft 308kts
23-Oct-20 08:27 47.386047 -122.671184 5 6568ft 285kts
23-Oct-20 08:28 47.462961 -122.657956 5 5029ft 269kts
23-Oct-20 08:29 47.534438 -122.647143 5 4991ft 255kts
23-Oct-20 08:30 47.605301 -122.636447 5 4991ft 255kts
23-Oct-20 08:31 47.675677 -122.625836 5 4987ft 243kts
23-Oct-20 08:32 47.720150 -122.562920 55 3848ft 215kts
23-Oct-20 08:33 47.723644 -122.494678 125 2784ft 167kts
23-Oct-20 08:34 47.696295 -122.443247 149 2190ft 155kts
23-Oct-20 08:35 47.658879 -122.411547 149 2186ft 150kts
23-Oct-20 08:36 47.622123 -122.380463 149 1874ft 163kts
23-Oct-20 08:37 47.587238 -122.350983 151 1101ft 124kts
23-Oct-20 08:37 47.566394 -122.333228 152 645ft 114kts
23-Oct-20 08:39 47.537981 -122.309304 150 36ft 89kts
23-Oct-20 08:39 47.533871 -122.304911 97 21ft 0kts
23-Oct-20 08:40 47.534696 -122.303436 329 21ft 19kts
23-Oct-20 08:41 47.537896 -122.306113 105 21ft 7kts
23-Oct-20 08:42 47.537663 -122.304729 143 21ft 0kts
23-Oct-20 08:44 47.537664 -122.304730 143 21ft 0kts
23-Oct-20 08:44 47.537664 -122.304730 143 21ft 0kts
23-Oct-20 08:45 47.537664 -122.304730 143 21ft 0kts

Navigation Log

Ident Type
Flight plan parsing failed, navigation log unavailable